sensor_id;sensor_type;location;lat;lon;timestamp;pressure;altitude;pressure_sealevel;temperature;humidity
29315;BME280;16320;53.954;9.506;2024-03-17T00:01:03;102038.97;;;4.47;100.00
29315;BME280;16320;53.954;9.506;2024-03-17T00:03:31;102042.47;;;4.43;100.00
29315;BME280;16320;53.954;9.506;2024-03-17T00:05:59;102048.56;;;4.37;100.00
29315;BME280;16320;53.954;9.506;2024-03-17T00:08:27;102061.59;;;4.36;100.00
29315;BME280;16320;53.954;9.506;2024-03-17T00:10:54;102061.59;;;4.33;100.00
29315;BME280;16320;53.954;9.506;2024-03-17T00:13:22;102055.56;;;4.26;100.00
29315;BME280;16320;53.954;9.506;2024-03-17T00:15:49;102064.22;;;4.22;100.00
29315;BME280;16320;53.954;9.506;2024-03-17T00:18:17;102071.19;;;4.14;100.00
29315;BME280;16320;53.954;9.506;2024-03-17T00:20:45;102078.13;;;4.13;100.00
29315;BME280;16320;53.954;9.506;2024-03-17T00:23:12;102083.34;;;4.15;100.00
29315;BME280;16320;53.954;9.506;2024-03-17T00:25:40;102078.16;;;4.02;100.00
29315;BME280;16320;53.954;9.506;2024-03-17T00:28:08;102082.50;;;3.97;100.00
29315;BME280;16320;53.954;9.506;2024-03-17T00:30:35;102085.97;;;4.01;100.00
29315;BME280;16320;53.954;9.506;2024-03-17T00:33:02;102086.84;;;3.94;100.00
29315;BME280;16320;53.954;9.506;2024-03-17T00:35:29;102087.72;;;3.97;100.00
29315;BME280;16320;53.954;9.506;2024-03-17T00:37:59;102093.75;;;4.01;100.00
29315;BME280;16320;53.954;9.506;2024-03-17T00:40:26;102100.72;;;3.99;100.00
29315;BME280;16320;53.954;9.506;2024-03-17T00:42:53;102105.91;;;3.99;100.00
29315;BME280;16320;53.954;9.506;2024-03-17T00:45:20;102114.56;;;3.96;100.00
29315;BME280;16320;53.954;9.506;2024-03-17T00:47:48;102118.91;;;3.96;100.00
29315;BME280;16320;53.954;9.506;2024-03-17T00:50:16;102124.13;;;3.91;100.00
29315;BME280;16320;53.954;9.506;2024-03-17T00:52:42;102127.59;;;3.95;100.00
29315;BME280;16320;53.954;9.506;2024-03-17T00:55:10;102133.66;;;4.00;100.00
29315;BME280;16320;53.954;9.506;2024-03-17T00:57:36;102126.69;;;4.03;100.00
29315;BME280;16320;53.954;9.506;2024-03-17T01:00:05;102125.84;;;4.03;100.00
29315;BME280;16320;53.954;9.506;2024-03-17T01:02:32;102120.66;;;4.03;100.00
29315;BME280;16320;53.954;9.506;2024-03-17T01:04:59;102127.56;;;4.01;100.00
29315;BME280;16320;53.954;9.506;2024-03-17T01:07:26;102120.66;;;4.00;100.00
29315;BME280;16320;53.954;9.506;2024-03-17T01:09:54;102118.91;;;3.99;100.00
29315;BME280;16320;53.954;9.506;2024-03-17T01:12:21;102128.47;;;3.88;100.00
29315;BME280;16320;53.954;9.506;2024-03-17T01:14:48;102126.72;;;3.88;100.00
29315;BME280;16320;53.954;9.506;2024-03-17T01:17:15;102125.84;;;3.88;100.00
29315;BME280;16320;53.954;9.506;2024-03-17T01:19:45;102126.72;;;3.88;100.00
29315;BME280;16320;53.954;9.506;2024-03-17T01:22:11;102124.16;;;3.80;100.00
29315;BME280;16320;53.954;9.506;2024-03-17T01:24:38;102124.16;;;3.71;100.00
29315;BME280;16320;53.954;9.506;2024-03-17T01:27:08;102117.22;;;3.53;100.00
29315;BME280;16320;53.954;9.506;2024-03-17T01:29:40;102123.28;;;3.51;100.00
29315;BME280;16320;53.954;9.506;2024-03-17T01:32:06;102132.81;;;3.48;100.00
29315;BME280;16320;53.954;9.506;2024-03-17T01:34:34;102134.53;;;3.43;100.00
29315;BME280;16320;53.954;9.506;2024-03-17T01:37:00;102124.16;;;3.39;100.00
29315;BME280;16320;53.954;9.506;2024-03-17T01:39:27;102132.78;;;3.36;100.00
29315;BME280;16320;53.954;9.506;2024-03-17T01:41:53;102142.31;;;3.39;100.00
29315;BME280;16320;53.954;9.506;2024-03-17T01:44:29;102153.56;;;3.36;100.00
29315;BME280;16320;53.954;9.506;2024-03-17T01:46:56;102163.94;;;3.35;100.00
29315;BME280;16320;53.954;9.506;2024-03-17T01:49:25;102162.22;;;3.23;100.00
29315;BME280;16320;53.954;9.506;2024-03-17T01:51:53;102165.69;;;3.20;100.00
29315;BME280;16320;53.954;9.506;2024-03-17T01:54:21;102163.91;;;3.15;100.00
29315;BME280;16320;53.954;9.506;2024-03-17T01:56:47;102169.09;;;3.11;100.00
29315;BME280;16320;53.954;9.506;2024-03-17T01:59:15;102176.03;;;3.08;100.00
29315;BME280;16320;53.954;9.506;2024-03-17T02:01:42;102176.00;;;3.03;100.00
29315;BME280;16320;53.954;9.506;2024-03-17T02:04:10;102168.19;;;2.94;100.00
29315;BME280;16320;53.954;9.506;2024-03-17T02:06:37;102177.69;;;2.92;100.00
29315;BME280;16320;53.954;9.506;2024-03-17T02:09:05;102171.66;;;2.93;100.00
29315;BME280;16320;53.954;9.506;2024-03-17T02:11:33;102175.13;;;2.93;100.00
29315;BME280;16320;53.954;9.506;2024-03-17T02:14:00;102178.56;;;2.88;100.00
29315;BME280;16320;53.954;9.506;2024-03-17T02:16:28;102188.97;;;2.96;100.00
29315;BME280;16320;53.954;9.506;2024-03-17T02:18:55;102184.66;;;3.05;100.00
29315;BME280;16320;53.954;9.506;2024-03-17T02:21:24;102191.59;;;3.03;100.00
29315;BME280;16320;53.954;9.506;2024-03-17T02:23:52;102190.75;;;3.06;100.00
29315;BME280;16320;53.954;9.506;2024-03-17T02:26:21;102189.88;;;3.11;100.00
29315;BME280;16320;53.954;9.506;2024-03-17T02:28:50;102192.50;;;3.16;100.00
29315;BME280;16320;53.954;9.506;2024-03-17T02:31:18;102193.34;;;3.17;100.00
29315;BME280;16320;53.954;9.506;2024-03-17T02:33:46;102189.91;;;3.18;100.00
29315;BME280;16320;53.954;9.506;2024-03-17T02:36:13;102192.50;;;3.16;100.00
29315;BME280;16320;53.954;9.506;2024-03-17T02:38:41;102195.13;;;3.27;100.00
29315;BME280;16320;53.954;9.506;2024-03-17T02:41:26;102197.72;;;3.39;100.00
29315;BME280;16320;53.954;9.506;2024-03-17T02:43:54;102204.69;;;3.51;100.00
29315;BME280;16320;53.954;9.506;2024-03-17T02:46:22;102211.63;;;3.57;100.00
29315;BME280;16320;53.954;9.506;2024-03-17T02:48:52;102213.38;;;3.59;100.00
29315;BME280;16320;53.954;9.506;2024-03-17T02:51:21;102222.00;;;3.52;100.00
29315;BME280;16320;53.954;9.506;2024-03-17T02:53:50;102223.75;;;3.56;100.00
29315;BME280;16320;53.954;9.506;2024-03-17T02:56:18;102221.16;;;3.61;100.00
29315;BME280;16320;53.954;9.506;2024-03-17T02:58:47;102222.88;;;3.56;100.00
29315;BME280;16320;53.954;9.506;2024-03-17T03:01:15;102219.41;;;3.51;100.00
29315;BME280;16320;53.954;9.506;2024-03-17T03:03:43;102226.34;;;3.55;100.00
29315;BME280;16320;53.954;9.506;2024-03-17T03:06:11;102226.34;;;3.58;100.00
29315;BME280;16320;53.954;9.506;2024-03-17T03:08:39;102224.63;;;3.60;100.00
29315;BME280;16320;53.954;9.506;2024-03-17T03:11:11;102223.75;;;3.53;100.00
29315;BME280;16320;53.954;9.506;2024-03-17T03:13:43;102223.69;;;3.39;100.00
29315;BME280;16320;53.954;9.506;2024-03-17T03:16:12;102226.28;;;3.36;100.00
29315;BME280;16320;53.954;9.506;2024-03-17T03:18:41;102219.38;;;3.32;100.00
29315;BME280;16320;53.954;9.506;2024-03-17T03:21:11;102203.72;;;3.17;100.00
29315;BME280;16320;53.954;9.506;2024-03-17T03:23:39;102214.13;;;3.07;100.00
29315;BME280;16320;53.954;9.506;2024-03-17T03:26:07;102207.16;;;3.03;100.00
29315;BME280;16320;53.954;9.506;2024-03-17T03:28:35;102213.22;;;3.05;100.00
29315;BME280;16320;53.954;9.506;2024-03-17T03:31:03;102207.16;;;3.02;100.00
29315;BME280;16320;53.954;9.506;2024-03-17T03:33:30;102201.09;;;3.00;100.00
29315;BME280;16320;53.954;9.506;2024-03-17T03:35:58;102205.41;;;2.91;100.00
29315;BME280;16320;53.954;9.506;2024-03-17T03:38:25;102207.06;;;2.80;100.00
29315;BME280;16320;53.954;9.506;2024-03-17T03:40:52;102210.50;;;2.78;100.00
29315;BME280;16320;53.954;9.506;2024-03-17T03:43:20;102210.56;;;2.85;100.00
29315;BME280;16320;53.954;9.506;2024-03-17T03:45:48;102212.31;;;2.88;100.00
29315;BME280;16320;53.954;9.506;2024-03-17T03:48:15;102219.19;;;2.86;100.00
29315;BME280;16320;53.954;9.506;2024-03-17T03:50:43;102212.28;;;2.82;100.00
29315;BME280;16320;53.954;9.506;2024-03-17T03:53:10;102213.09;;;2.74;100.00
29315;BME280;16320;53.954;9.506;2024-03-17T03:55:38;102218.28;;;2.71;100.00
29315;BME280;16320;53.954;9.506;2024-03-17T03:58:05;102219.16;;;2.70;100.00
29315;BME280;16320;53.954;9.506;2024-03-17T04:00:32;102205.28;;;2.67;100.00
29315;BME280;16320;53.954;9.506;2024-03-17T04:03:00;102200.88;;;2.53;100.00
29315;BME280;16320;53.954;9.506;2024-03-17T04:05:27;102207.78;;;2.51;100.00
29315;BME280;16320;53.954;9.506;2024-03-17T04:07:55;102199.19;;;2.55;100.00
29315;BME280;16320;53.954;9.506;2024-03-17T04:10:22;102200.03;;;2.54;100.00
29315;BME280;16320;53.954;9.506;2024-03-17T04:12:52;102199.94;;;2.34;100.00
29315;BME280;16320;53.954;9.506;2024-03-17T04:15:19;102201.66;;;2.32;100.00
29315;BME280;16320;53.954;9.506;2024-03-17T04:17:47;102199.03;;;2.29;100.00
29315;BME280;16320;53.954;9.506;2024-03-17T04:20:15;102199.84;;;2.25;100.00
29315;BME280;16320;53.954;9.506;2024-03-17T04:22:42;102201.59;;;2.23;100.00
29315;BME280;16320;53.954;9.506;2024-03-17T04:25:13;102206.81;;;2.29;100.00
29315;BME280;16320;53.954;9.506;2024-03-17T04:27:41;102217.22;;;2.32;100.00
29315;BME280;16320;53.954;9.506;2024-03-17T04:30:10;102209.41;;;2.29;100.00
29315;BME280;16320;53.954;9.506;2024-03-17T04:32:37;102210.22;;;2.25;100.00
29315;BME280;16320;53.954;9.506;2024-03-17T04:35:05;102211.94;;;2.20;100.00
29315;BME280;16320;53.954;9.506;2024-03-17T04:37:32;102209.34;;;2.23;100.00
29315;BME280;16320;53.954;9.506;2024-03-17T04:40:06;102214.56;;;2.26;100.00
29315;BME280;16320;53.954;9.506;2024-03-17T04:42:35;102211.97;;;2.26;100.00
29315;BME280;16320;53.954;9.506;2024-03-17T04:45:07;102208.47;;;2.24;100.00
29315;BME280;16320;53.954;9.506;2024-03-17T04:47:37;102215.44;;;2.28;100.00
29315;BME280;16320;53.954;9.506;2024-03-17T04:50:06;102213.63;;;2.15;100.00
29315;BME280;16320;53.954;9.506;2024-03-17T04:52:35;102217.03;;;2.11;100.00
29315;BME280;16320;53.954;9.506;2024-03-17T04:55:04;102212.72;;;2.13;100.00
29315;BME280;16320;53.954;9.506;2024-03-17T04:57:31;102217.94;;;2.17;100.00
29315;BME280;16320;53.954;9.506;2024-03-17T04:59:59;102223.09;;;2.14;100.00
29315;BME280;16320;53.954;9.506;2024-03-17T05:02:26;102226.59;;;2.16;100.00
29315;BME280;16320;53.954;9.506;2024-03-17T05:04:54;102216.22;;;2.13;100.00
29315;BME280;16320;53.954;9.506;2024-03-17T05:07:22;102223.13;;;2.16;100.00
29315;BME280;16320;53.954;9.506;2024-03-17T05:09:50;102229.22;;;2.18;100.00
29315;BME280;16320;53.954;9.506;2024-03-17T05:12:17;102219.63;;;2.09;100.00
29315;BME280;16320;53.954;9.506;2024-03-17T05:14:45;102228.28;;;2.13;100.00
29315;BME280;16320;53.954;9.506;2024-03-17T05:17:12;102229.13;;;2.09;100.00
29315;BME280;16320;53.954;9.506;2024-03-17T05:19:39;102225.66;;;2.07;100.00
29315;BME280;16320;53.954;9.506;2024-03-17T05:22:06;102216.19;;;2.10;100.00
29315;BME280;16320;53.954;9.506;2024-03-17T05:24:34;102223.06;;;2.07;100.00
29315;BME280;16320;53.954;9.506;2024-03-17T05:27:01;102228.16;;;1.97;100.00
29315;BME280;16320;53.954;9.506;2024-03-17T05:29:28;102227.34;;;2.01;100.00
29315;BME280;16320;53.954;9.506;2024-03-17T05:31:56;102236.06;;;2.10;100.00
29315;BME280;16320;53.954;9.506;2024-03-17T05:34:23;102234.28;;;2.06;100.00
29315;BME280;16320;53.954;9.506;2024-03-17T05:36:51;102242.84;;;1.95;100.00
29315;BME280;16320;53.954;9.506;2024-03-17T05:39:20;102237.66;;;1.95;100.00
29315;BME280;16320;53.954;9.506;2024-03-17T05:41:49;102248.09;;;2.01;100.00
29315;BME280;16320;53.954;9.506;2024-03-17T05:44:16;102259.41;;;2.14;100.00
29315;BME280;16320;53.954;9.506;2024-03-17T05:46:43;102258.56;;;2.17;100.00
29315;BME280;16320;53.954;9.506;2024-03-17T05:49:10;102268.03;;;2.10;100.00
29315;BME280;16320;53.954;9.506;2024-03-17T05:51:38;102267.94;;;2.03;100.00
29315;BME280;16320;53.954;9.506;2024-03-17T05:54:06;102279.19;;;2.05;100.00
29315;BME280;16320;53.954;9.506;2024-03-17T05:56:33;102275.78;;;2.09;100.00
29315;BME280;16320;53.954;9.506;2024-03-17T05:59:01;102280.13;;;2.13;100.00
29315;BME280;16320;53.954;9.506;2024-03-17T06:01:28;102295.69;;;2.14;100.00
29315;BME280;16320;53.954;9.506;2024-03-17T06:03:56;102288.81;;;2.15;100.00
29315;BME280;16320;53.954;9.506;2024-03-17T06:06:22;102291.41;;;2.15;100.00
29315;BME280;16320;53.954;9.506;2024-03-17T06:08:50;102300.06;;;2.20;100.00
29315;BME280;16320;53.954;9.506;2024-03-17T06:11:17;102294.06;;;2.27;100.00
29315;BME280;16320;53.954;9.506;2024-03-17T06:13:44;102313.19;;;2.38;100.00
29315;BME280;16320;53.954;9.506;2024-03-17T06:16:12;102316.69;;;2.47;100.00
29315;BME280;16320;53.954;9.506;2024-03-17T06:18:39;102316.69;;;2.41;100.00
29315;BME280;16320;53.954;9.506;2024-03-17T06:21:06;102319.25;;;2.44;100.00
29315;BME280;16320;53.954;9.506;2024-03-17T06:23:35;102312.38;;;2.43;100.00
29315;BME280;16320;53.954;9.506;2024-03-17T06:26:05;102320.19;;;2.47;100.00
29315;BME280;16320;53.954;9.506;2024-03-17T06:28:33;102321.09;;;2.54;100.00
29315;BME280;16320;53.954;9.506;2024-03-17T06:31:00;102321.97;;;2.56;100.00
29315;BME280;16320;53.954;9.506;2024-03-17T06:33:30;102328.06;;;2.64;100.00
29315;BME280;16320;53.954;9.506;2024-03-17T06:35:58;102340.22;;;2.68;100.00
29315;BME280;16320;53.954;9.506;2024-03-17T06:38:27;102334.97;;;2.62;100.00
29315;BME280;16320;53.954;9.506;2024-03-17T06:40:54;102335.91;;;2.69;100.00
29315;BME280;16320;53.954;9.506;2024-03-17T06:43:22;102337.66;;;2.71;100.00
29315;BME280;16320;53.954;9.506;2024-03-17T06:48:24;102352.41;;;2.79;100.00
29315;BME280;16320;53.954;9.506;2024-03-17T06:50:54;102356.75;;;2.86;100.00
29315;BME280;16320;53.954;9.506;2024-03-17T06:53:22;102340.41;;;2.98;100.00
29315;BME280;16320;53.954;9.506;2024-03-17T06:55:58;102342.19;;;3.06;100.00
29315;BME280;16320;53.954;9.506;2024-03-17T06:58:27;102347.38;;;3.06;100.00
29315;BME280;16320;53.954;9.506;2024-03-17T07:01:00;102336.13;;;3.07;100.00
29315;BME280;16320;53.954;9.506;2024-03-17T07:03:31;102343.97;;;3.14;100.00
29315;BME280;16320;53.954;9.506;2024-03-17T07:06:01;102333.59;;;3.23;100.00
29315;BME280;16320;53.954;9.506;2024-03-17T07:08:30;102331.09;;;3.40;100.00
29315;BME280;16320;53.954;9.506;2024-03-17T07:11:05;102322.41;;;3.41;100.00
29315;BME280;16320;53.954;9.506;2024-03-17T07:13:37;102326.81;;;3.53;100.00
29315;BME280;16320;53.954;9.506;2024-03-17T07:16:07;102318.19;;;3.66;100.00
29315;BME280;16320;53.954;9.506;2024-03-17T07:18:35;102316.47;;;3.77;100.00
29315;BME280;16320;53.954;9.506;2024-03-17T07:21:04;102313.91;;;3.80;100.00
29315;BME280;16320;53.954;9.506;2024-03-17T07:23:32;102297.44;;;3.88;100.00
29315;BME280;16320;53.954;9.506;2024-03-17T07:26:00;102288.78;;;3.92;100.00
29315;BME280;16320;53.954;9.506;2024-03-17T07:28:32;102286.19;;;4.12;100.00
29315;BME280;16320;53.954;9.506;2024-03-17T07:31:00;102282.72;;;4.24;100.00
29315;BME280;16320;53.954;9.506;2024-03-17T07:33:28;102273.16;;;4.29;100.00
29315;BME280;16320;53.954;9.506;2024-03-17T07:35:57;102269.72;;;4.31;100.00
29315;BME280;16320;53.954;9.506;2024-03-17T07:38:27;102255.84;;;4.34;100.00
29315;BME280;16320;53.954;9.506;2024-03-17T07:41:00;102249.75;;;4.39;100.00
29315;BME280;16320;53.954;9.506;2024-03-17T07:43:29;102248.84;;;4.54;100.00
29315;BME280;16320;53.954;9.506;2024-03-17T07:46:00;102241.94;;;4.53;100.00
29315;BME280;16320;53.954;9.506;2024-03-17T07:48:34;102239.28;;;4.61;100.00
29315;BME280;16320;53.954;9.506;2024-03-17T07:51:09;102237.53;;;4.74;100.00
29315;BME280;16320;53.954;9.506;2024-03-17T07:53:41;102234.06;;;4.76;100.00
29315;BME280;16320;53.954;9.506;2024-03-17T07:56:12;102231.38;;;4.97;100.00
29315;BME280;16320;53.954;9.506;2024-03-17T07:58:44;102223.56;;;4.97;100.00
29315;BME280;16320;53.954;9.506;2024-03-17T08:01:13;102224.38;;;5.09;100.00
29315;BME280;16320;53.954;9.506;2024-03-17T08:03:45;102222.53;;;5.28;100.00
29315;BME280;16320;53.954;9.506;2024-03-17T08:06:15;102222.53;;;5.28;100.00
29315;BME280;16320;53.954;9.506;2024-03-17T08:08:42;102212.09;;;5.31;100.00
29315;BME280;16320;53.954;9.506;2024-03-17T08:11:10;102201.63;;;5.38;100.00
29315;BME280;16320;53.954;9.506;2024-03-17T08:13:39;102192.91;;;5.45;100.00
29315;BME280;16320;53.954;9.506;2024-03-17T08:16:07;102184.13;;;5.54;100.00
29315;BME280;16320;53.954;9.506;2024-03-17T08:18:37;102177.16;;;5.57;100.00
29315;BME280;16320;53.954;9.506;2024-03-17T08:21:06;102175.44;;;5.59;100.00
29315;BME280;16320;53.954;9.506;2024-03-17T08:23:34;102170.13;;;5.67;100.00
29315;BME280;16320;53.954;9.506;2024-03-17T08:26:05;102173.47;;;5.83;100.00
29315;BME280;16320;53.954;9.506;2024-03-17T08:28:32;102173.41;;;5.97;100.00
29315;BME280;16320;53.954;9.506;2024-03-17T08:31:02;102148.19;;;5.93;100.00
29315;BME280;16320;53.954;9.506;2024-03-17T08:33:30;102145.47;;;6.10;100.00
29315;BME280;16320;53.954;9.506;2024-03-17T08:36:06;102131.38;;;6.26;100.00
29315;BME280;16320;53.954;9.506;2024-03-17T08:38:35;102132.06;;;6.42;100.00
29315;BME280;16320;53.954;9.506;2024-03-17T08:41:10;102119.75;;;6.53;100.00
29315;BME280;16320;53.954;9.506;2024-03-17T08:43:44;102114.38;;;6.64;100.00
29315;BME280;16320;53.954;9.506;2024-03-17T08:46:12;102116.91;;;6.70;100.00
29315;BME280;16320;53.954;9.506;2024-03-17T08:48:41;102116.00;;;6.74;100.00
29315;BME280;16320;53.954;9.506;2024-03-17T08:51:11;102106.34;;;6.80;100.00
29315;BME280;16320;53.954;9.506;2024-03-17T08:53:40;102104.41;;;6.94;100.00
29315;BME280;16320;53.954;9.506;2024-03-17T08:56:07;102099.09;;;6.99;100.00
29315;BME280;16320;53.954;9.506;2024-03-17T08:58:35;102092.09;;;7.02;100.00
29315;BME280;16320;53.954;9.506;2024-03-17T09:01:07;102098.94;;;7.09;100.00
29315;BME280;16320;53.954;9.506;2024-03-17T09:03:35;102099.63;;;7.21;100.00
29315;BME280;16320;53.954;9.506;2024-03-17T09:06:03;102090.84;;;7.26;100.00
29315;BME280;16320;53.954;9.506;2024-03-17T09:08:31;102089.84;;;7.35;100.00
29315;BME280;16320;53.954;9.506;2024-03-17T09:11:00;102089.91;;;7.29;100.00
29315;BME280;16320;53.954;9.506;2024-03-17T09:13:27;102095.19;;;7.26;100.00
29315;BME280;16320;53.954;9.506;2024-03-17T09:18:28;102098.31;;;7.49;100.00
29315;BME280;16320;53.954;9.506;2024-03-17T09:23:28;102106.66;;;7.70;100.00
29315;BME280;16320;53.954;9.506;2024-03-17T09:26:01;102111.72;;;7.81;100.00
29315;BME280;16320;53.954;9.506;2024-03-17T09:28:29;102110.72;;;7.88;100.00
29315;BME280;16320;53.954;9.506;2024-03-17T09:30:58;102100.25;;;7.88;100.00
29315;BME280;16320;53.954;9.506;2024-03-17T09:33:29;102103.72;;;7.90;100.00
29315;BME280;16320;53.954;9.506;2024-03-17T09:36:07;102113.56;;;7.76;100.00
29315;BME280;16320;53.954;9.506;2024-03-17T09:38:37;102127.56;;;7.70;100.00
29315;BME280;16320;53.954;9.506;2024-03-17T09:41:06;102130.28;;;7.67;100.00
29315;BME280;16320;53.954;9.506;2024-03-17T09:43:35;102119.50;;;7.84;100.00
29315;BME280;16320;53.954;9.506;2024-03-17T09:46:05;102106.50;;;7.79;100.00
29315;BME280;16320;53.954;9.506;2024-03-17T09:48:34;102109.63;;;7.50;100.00
29315;BME280;16320;53.954;9.506;2024-03-17T09:51:03;102105.50;;;7.35;100.00
29315;BME280;16320;53.954;9.506;2024-03-17T09:53:35;102114.22;;;7.36;100.00
29315;BME280;16320;53.954;9.506;2024-03-17T09:56:18;102110.56;;;7.47;100.00
29315;BME280;16320;53.954;9.506;2024-03-17T09:58:50;102112.25;;;7.48;100.00
29315;BME280;16320;53.954;9.506;2024-03-17T10:01:18;102113.22;;;7.44;100.00
29315;BME280;16320;53.954;9.506;2024-03-17T10:03:54;102127.94;;;7.48;100.00
29315;BME280;16320;53.954;9.506;2024-03-17T10:06:24;102124.72;;;7.31;100.00
29315;BME280;16320;53.954;9.506;2024-03-17T10:08:58;102136.06;;;7.33;100.00
29315;BME280;16320;53.954;9.506;2024-03-17T10:11:36;102139.53;;;7.32;100.00
29315;BME280;16320;53.954;9.506;2024-03-17T10:14:06;102133.44;;;7.33;100.00
29315;BME280;16320;53.954;9.506;2024-03-17T10:16:38;102134.19;;;7.40;100.00
29315;BME280;16320;53.954;9.506;2024-03-17T10:19:23;102121.19;;;7.35;100.00
29315;BME280;16320;53.954;9.506;2024-03-17T10:21:59;102123.94;;;7.26;100.00
29315;BME280;16320;53.954;9.506;2024-03-17T10:24:28;102136.13;;;7.27;100.00
29315;BME280;16320;53.954;9.506;2024-03-17T10:27:01;102123.84;;;7.33;100.00
29315;BME280;16320;53.954;9.506;2024-03-17T10:29:34;102116.69;;;7.45;100.00
29315;BME280;16320;53.954;9.506;2024-03-17T10:32:17;102114.09;;;7.43;100.00
29315;BME280;16320;53.954;9.506;2024-03-17T10:34:44;102115.66;;;7.54;100.00
29315;BME280;16320;53.954;9.506;2024-03-17T10:37:20;102114.66;;;7.62;100.00
29315;BME280;16320;53.954;9.506;2024-03-17T10:39:51;102115.19;;;7.81;100.00
29315;BME280;16320;53.954;9.506;2024-03-17T10:42:28;102126.41;;;7.90;100.00
29315;BME280;16320;53.954;9.506;2024-03-17T10:44:58;102121.63;;;8.10;100.00
29315;BME280;16320;53.954;9.506;2024-03-17T10:47:27;102122.88;;;8.36;100.00
29315;BME280;16320;53.954;9.506;2024-03-17T10:49:55;102126.16;;;8.49;100.00
29315;BME280;16320;53.954;9.506;2024-03-17T10:52:24;102117.19;;;8.60;100.00
29315;BME280;16320;53.954;9.506;2024-03-17T10:54:53;102110.97;;;8.66;100.00
29315;BME280;16320;53.954;9.506;2024-03-17T11:00:05;102098.56;;;8.74;100.00
29315;BME280;16320;53.954;9.506;2024-03-17T11:02:41;102105.38;;;8.82;100.00
29315;BME280;16320;53.954;9.506;2024-03-17T11:05:23;102100.22;;;8.77;100.00
29315;BME280;16320;53.954;9.506;2024-03-17T11:07:52;102087.84;;;8.84;100.00
29315;BME280;16320;53.954;9.506;2024-03-17T11:10:23;102083.63;;;8.78;100.00
29315;BME280;16320;53.954;9.506;2024-03-17T11:13:01;102096.84;;;8.72;100.00
29315;BME280;16320;53.954;9.506;2024-03-17T11:20:40;102084.19;;;8.92;100.00
29315;BME280;16320;53.954;9.506;2024-03-17T11:23:09;102089.78;;;9.13;100.00
29315;BME280;16320;53.954;9.506;2024-03-17T11:25:40;102082.72;;;9.18;100.00
29315;BME280;16320;53.954;9.506;2024-03-17T11:28:09;102084.72;;;9.07;100.00
29315;BME280;16320;53.954;9.506;2024-03-17T11:30:50;102079.81;;;8.91;100.00
29315;BME280;16320;53.954;9.506;2024-03-17T11:39:02;102089.59;;;9.22;100.00
29315;BME280;16320;53.954;9.506;2024-03-17T11:41:45;102084.72;;;9.43;100.00
29315;BME280;16320;53.954;9.506;2024-03-17T11:47:03;102076.69;;;9.49;100.00
29315;BME280;16320;53.954;9.506;2024-03-17T11:49:34;102076.28;;;9.30;100.00
29315;BME280;16320;53.954;9.506;2024-03-17T11:52:02;102080.44;;;9.39;100.00
29315;BME280;16320;53.954;9.506;2024-03-17T11:54:33;102066.09;;;9.52;100.00
29315;BME280;16320;53.954;9.506;2024-03-17T11:57:05;102070.53;;;9.50;100.00
29315;BME280;16320;53.954;9.506;2024-03-17T11:59:33;102071.59;;;9.43;100.00
29315;BME280;16320;53.954;9.506;2024-03-17T12:02:01;102066.38;;;9.43;100.00
29315;BME280;16320;53.954;9.506;2024-03-17T12:04:29;102058.91;;;9.26;100.00
29315;BME280;16320;53.954;9.506;2024-03-17T12:06:58;102068.81;;;9.13;100.00
29315;BME280;16320;53.954;9.506;2024-03-17T12:09:30;102064.03;;;9.30;100.00
29315;BME280;16320;53.954;9.506;2024-03-17T12:12:20;102057.69;;;9.41;100.00
29315;BME280;16320;53.954;9.506;2024-03-17T12:14:49;102052.72;;;9.28;100.00
29315;BME280;16320;53.954;9.506;2024-03-17T12:17:21;102055.72;;;9.49;100.00
29315;BME280;16320;53.954;9.506;2024-03-17T12:19:49;102053.19;;;9.79;100.00
29315;BME280;16320;53.954;9.506;2024-03-17T12:22:21;102047.31;;;10.00;100.00
29315;BME280;16320;53.954;9.506;2024-03-17T12:24:54;102048.09;;;10.04;100.00
29315;BME280;16320;53.954;9.506;2024-03-17T12:27:22;102050.94;;;10.27;100.00
29315;BME280;16320;53.954;9.506;2024-03-17T12:29:53;102044.22;;;10.49;100.00
29315;BME280;16320;53.954;9.506;2024-03-17T12:32:22;102042.06;;;10.32;100.00
29315;BME280;16320;53.954;9.506;2024-03-17T12:34:51;102040.28;;;10.34;100.00
29315;BME280;16320;53.954;9.506;2024-03-17T12:37:24;102035.63;;;10.12;100.00
29315;BME280;16320;53.954;9.506;2024-03-17T12:39:54;102036.41;;;10.16;100.00
29315;BME280;16320;53.954;9.506;2024-03-17T12:42:24;102032.50;;;10.29;100.00
29315;BME280;16320;53.954;9.506;2024-03-17T12:44:58;102035.94;;;10.31;100.00
29315;BME280;16320;53.954;9.506;2024-03-17T12:47:27;102029.81;;;10.32;100.00
29315;BME280;16320;53.954;9.506;2024-03-17T12:49:56;102029.16;;;10.24;100.00
29315;BME280;16320;53.954;9.506;2024-03-17T12:52:24;102027.44;;;10.23;100.00
29315;BME280;16320;53.954;9.506;2024-03-17T12:55:09;102023.72;;;10.60;100.00
29315;BME280;16320;53.954;9.506;2024-03-17T13:01:03;102013.00;;;11.46;100.00
29315;BME280;16320;53.954;9.506;2024-03-17T13:03:34;102000.34;;;11.58;100.00
29315;BME280;16320;53.954;9.506;2024-03-17T13:06:03;102001.06;;;11.86;100.00
29315;BME280;16320;53.954;9.506;2024-03-17T13:08:33;102000.63;;;12.22;100.00
29315;BME280;16320;53.954;9.506;2024-03-17T13:11:00;102001.19;;;12.31;100.00
29315;BME280;16320;53.954;9.506;2024-03-17T13:13:29;101992.63;;;12.25;100.00
29315;BME280;16320;53.954;9.506;2024-03-17T13:15:57;101998.81;;;12.01;100.00
29315;BME280;16320;53.954;9.506;2024-03-17T13:18:25;101998.31;;;12.37;100.00
29315;BME280;16320;53.954;9.506;2024-03-17T13:20:54;101983.53;;;12.77;100.00
29315;BME280;16320;53.954;9.506;2024-03-17T13:23:23;101988.19;;;12.92;100.00
29315;BME280;16320;53.954;9.506;2024-03-17T13:25:51;101984.25;;;13.03;100.00
29315;BME280;16320;53.954;9.506;2024-03-17T13:28:19;101980.03;;;13.19;100.00